アトランタ の空港の天気 - METARとTAF

ハーツフィールド・ジャクソン・アトランタ国際空港 ( KATL / ATL ) - アメリカ ジョージア州アトランタ
飛行場実況気象(Metar)
観測時間04/19 06:52 EDT (04/19 10:52 UTC)
風向・風速西 4m/s
視程10km以上
天気現象
少しの雲 雲底高度 700m
全天の4割程度の雲 雲底高度 850m
全天の4割程度の雲 雲底高度 1680m
気温16.7℃
湿度86%
気圧1013hPa
METARKATL 191052Z 28007KT 10SM FEW023 SCT028 SCT055 17/14 A2994 RMK AO2 SLP130 MDT CU E-OHD-W T01670144
過去の天気等 Google飛行場航空写真 Wunderground天気予報

過去48時間のMETAR

飛行場予報(TAF)
発表時間: 4/19 07:29 EDT (4/19 11:29 UTC)
予報対象時間: 19日8時 EDT ~ 20日14時 EDT
風向・風速北西 6m/s
視程10km以上
全天の4割程度の雲 雲底高度 1,070m
全天の4割程度の雲 雲底高度 1,520m
19日9時 EDT から
風向・風速北西 6m/s 瞬間風速 9m/s
視程10km以上
少しの雲 雲底高度 1,220m
19日11時 EDT から
風向・風速北西 8m/s 瞬間風速 13m/s
視程10km以上
なし
19日20時 EDT から
風向・風速北北西 6m/s
視程10km以上
なし
20日5時 EDT から
風向・風速北北東 4m/s
視程10km以上
なし
20日11時 EDT から
風向・風速東 5m/s
視程10km以上
なし
KATL 191129Z 1912/2018 31012KT P6SM SCT035 SCT050
FM191300 32012G18KT P6SM FEW040
FM191500 32016G26KT P6SM SKC
FM200000 33012KT P6SM SKC
FM200900 03007KT P6SM SKC
FM201500 09010KT P6SM SKC